sensor_id;sensor_type;location;lat;lon;timestamp;P1;durP1;ratioP1;P2;durP2;ratioP2
69910;SDS011;63555;49.920;17.868;2023-12-04T00:03:18;21.87;;;8.87;;
69910;SDS011;63555;49.920;17.868;2023-12-04T00:08:19;13.20;;;6.03;;
69910;SDS011;63555;49.920;17.868;2023-12-04T00:13:19;19.47;;;5.97;;
69910;SDS011;63555;49.920;17.868;2023-12-04T00:18:19;14.10;;;6.67;;
69910;SDS011;63555;49.920;17.868;2023-12-04T00:23:20;17.63;;;7.43;;
69910;SDS011;63555;49.920;17.868;2023-12-04T00:28:20;9.90;;;5.37;;
69910;SDS011;63555;49.920;17.868;2023-12-04T00:33:20;9.10;;;4.00;;
69910;SDS011;63555;49.920;17.868;2023-12-04T00:38:21;17.63;;;7.67;;
69910;SDS011;63555;49.920;17.868;2023-12-04T00:43:21;14.03;;;6.67;;
69910;SDS011;63555;49.920;17.868;2023-12-04T00:48:22;16.40;;;7.60;;
69910;SDS011;63555;49.920;17.868;2023-12-04T00:53:22;16.88;;;6.45;;
69910;SDS011;63555;49.920;17.868;2023-12-04T00:58:22;17.73;;;7.60;;
69910;SDS011;63555;49.920;17.868;2023-12-04T01:03:23;16.17;;;6.17;;
69910;SDS011;63555;49.920;17.868;2023-12-04T01:08:26;14.32;;;7.03;;
69910;SDS011;63555;49.920;17.868;2023-12-04T01:13:26;14.93;;;6.83;;
69910;SDS011;63555;49.920;17.868;2023-12-04T01:18:27;17.60;;;8.03;;
69910;SDS011;63555;49.920;17.868;2023-12-04T01:23:27;14.63;;;6.93;;
69910;SDS011;63555;49.920;17.868;2023-12-04T01:28:27;11.63;;;5.53;;
69910;SDS011;63555;49.920;17.868;2023-12-04T01:33:28;16.77;;;6.37;;
69910;SDS011;63555;49.920;17.868;2023-12-04T01:38:30;13.87;;;7.07;;
69910;SDS011;63555;49.920;17.868;2023-12-04T01:43:31;14.52;;;7.70;;
69910;SDS011;63555;49.920;17.868;2023-12-04T01:48:31;14.30;;;7.63;;
69910;SDS011;63555;49.920;17.868;2023-12-04T01:53:32;17.35;;;7.20;;
69910;SDS011;63555;49.920;17.868;2023-12-04T01:58:34;19.23;;;7.20;;
69910;SDS011;63555;49.920;17.868;2023-12-04T02:03:35;18.43;;;7.00;;
69910;SDS011;63555;49.920;17.868;2023-12-04T02:08:35;17.65;;;6.75;;
69910;SDS011;63555;49.920;17.868;2023-12-04T02:13:36;14.50;;;6.40;;
69910;SDS011;63555;49.920;17.868;2023-12-04T02:18:36;15.40;;;6.00;;
69910;SDS011;63555;49.920;17.868;2023-12-04T02:23:40;14.37;;;6.37;;
69910;SDS011;63555;49.920;17.868;2023-12-04T02:28:41;10.50;;;4.53;;
69910;SDS011;63555;49.920;17.868;2023-12-04T02:33:46;8.52;;;4.63;;
69910;SDS011;63555;49.920;17.868;2023-12-04T02:38:50;9.48;;;5.07;;
69910;SDS011;63555;49.920;17.868;2023-12-04T02:43:51;13.32;;;5.60;;
69910;SDS011;63555;49.920;17.868;2023-12-04T02:48:51;11.87;;;4.73;;
69910;SDS011;63555;49.920;17.868;2023-12-04T02:53:52;9.40;;;3.60;;
69910;SDS011;63555;49.920;17.868;2023-12-04T02:58:52;10.07;;;5.20;;
69910;SDS011;63555;49.920;17.868;2023-12-04T03:03:52;11.30;;;4.87;;
69910;SDS011;63555;49.920;17.868;2023-12-04T03:08:53;7.77;;;3.23;;
69910;SDS011;63555;49.920;17.868;2023-12-04T03:13:53;15.20;;;5.50;;
69910;SDS011;63555;49.920;17.868;2023-12-04T03:18:54;8.60;;;3.93;;
69910;SDS011;63555;49.920;17.868;2023-12-04T03:23:54;6.57;;;3.70;;
69910;SDS011;63555;49.920;17.868;2023-12-04T03:28:54;13.20;;;6.17;;
69910;SDS011;63555;49.920;17.868;2023-12-04T03:33:55;18.53;;;8.17;;
69910;SDS011;63555;49.920;17.868;2023-12-04T03:38:55;14.87;;;8.20;;
69910;SDS011;63555;49.920;17.868;2023-12-04T03:43:55;9.20;;;5.07;;
69910;SDS011;63555;49.920;17.868;2023-12-04T03:48:56;14.30;;;4.67;;
69910;SDS011;63555;49.920;17.868;2023-12-04T03:53:56;8.27;;;4.83;;
69910;SDS011;63555;49.920;17.868;2023-12-04T03:58:56;7.70;;;3.20;;
69910;SDS011;63555;49.920;17.868;2023-12-04T04:03:57;8.87;;;3.93;;
69910;SDS011;63555;49.920;17.868;2023-12-04T04:08:58;7.80;;;3.60;;
69910;SDS011;63555;49.920;17.868;2023-12-04T04:13:58;13.43;;;3.00;;
69910;SDS011;63555;49.920;17.868;2023-12-04T04:18:58;7.10;;;2.50;;
69910;SDS011;63555;49.920;17.868;2023-12-04T04:23:59;8.23;;;2.83;;
69910;SDS011;63555;49.920;17.868;2023-12-04T04:28:59;5.23;;;3.07;;
69910;SDS011;63555;49.920;17.868;2023-12-04T04:34:00;8.23;;;2.47;;
69910;SDS011;63555;49.920;17.868;2023-12-04T04:39:01;7.80;;;4.27;;
69910;SDS011;63555;49.920;17.868;2023-12-04T04:44:01;6.55;;;3.55;;
69910;SDS011;63555;49.920;17.868;2023-12-04T04:49:02;10.13;;;3.93;;
69910;SDS011;63555;49.920;17.868;2023-12-04T04:54:06;8.53;;;3.30;;
69910;SDS011;63555;49.920;17.868;2023-12-04T04:59:06;7.37;;;3.20;;
69910;SDS011;63555;49.920;17.868;2023-12-04T05:04:07;5.80;;;2.37;;
69910;SDS011;63555;49.920;17.868;2023-12-04T05:09:07;7.90;;;2.90;;
69910;SDS011;63555;49.920;17.868;2023-12-04T05:14:07;5.57;;;3.27;;
69910;SDS011;63555;49.920;17.868;2023-12-04T05:19:08;5.17;;;2.93;;
69910;SDS011;63555;49.920;17.868;2023-12-04T05:24:08;6.27;;;2.70;;
69910;SDS011;63555;49.920;17.868;2023-12-04T05:29:09;12.10;;;5.03;;
69910;SDS011;63555;49.920;17.868;2023-12-04T05:34:09;9.40;;;4.37;;
69910;SDS011;63555;49.920;17.868;2023-12-04T05:39:09;10.07;;;4.33;;
69910;SDS011;63555;49.920;17.868;2023-12-04T05:44:10;4.90;;;2.50;;
69910;SDS011;63555;49.920;17.868;2023-12-04T05:49:10;7.90;;;3.90;;
69910;SDS011;63555;49.920;17.868;2023-12-04T05:54:10;4.00;;;2.70;;
69910;SDS011;63555;49.920;17.868;2023-12-04T05:59:11;4.30;;;2.57;;
69910;SDS011;63555;49.920;17.868;2023-12-04T06:04:11;13.03;;;5.47;;
69910;SDS011;63555;49.920;17.868;2023-12-04T06:09:11;5.80;;;2.87;;
69910;SDS011;63555;49.920;17.868;2023-12-04T06:14:12;5.47;;;2.73;;
69910;SDS011;63555;49.920;17.868;2023-12-04T06:19:12;8.37;;;4.20;;
69910;SDS011;63555;49.920;17.868;2023-12-04T06:24:13;5.70;;;3.90;;
69910;SDS011;63555;49.920;17.868;2023-12-04T06:29:13;8.57;;;3.47;;
69910;SDS011;63555;49.920;17.868;2023-12-04T06:34:14;12.63;;;4.90;;
69910;SDS011;63555;49.920;17.868;2023-12-04T06:39:14;3.47;;;2.40;;
69910;SDS011;63555;49.920;17.868;2023-12-04T06:44:17;7.93;;;4.00;;
69910;SDS011;63555;49.920;17.868;2023-12-04T06:49:17;13.07;;;4.53;;
69910;SDS011;63555;49.920;17.868;2023-12-04T06:54:18;5.73;;;3.07;;
69910;SDS011;63555;49.920;17.868;2023-12-04T06:59:19;12.63;;;4.20;;
69910;SDS011;63555;49.920;17.868;2023-12-04T07:04:19;7.50;;;3.95;;
69910;SDS011;63555;49.920;17.868;2023-12-04T07:09:23;9.77;;;4.38;;
69910;SDS011;63555;49.920;17.868;2023-12-04T07:14:23;10.57;;;3.33;;
69910;SDS011;63555;49.920;17.868;2023-12-04T07:19:23;5.53;;;4.27;;
69910;SDS011;63555;49.920;17.868;2023-12-04T07:24:24;9.37;;;4.10;;
69910;SDS011;63555;49.920;17.868;2023-12-04T07:29:26;18.42;;;7.25;;
69910;SDS011;63555;49.920;17.868;2023-12-04T07:34:26;14.73;;;6.33;;
69910;SDS011;63555;49.920;17.868;2023-12-04T07:39:28;13.35;;;4.18;;
69910;SDS011;63555;49.920;17.868;2023-12-04T07:44:29;12.48;;;4.72;;
69910;SDS011;63555;49.920;17.868;2023-12-04T07:49:30;8.73;;;3.73;;
69910;SDS011;63555;49.920;17.868;2023-12-04T07:54:30;8.90;;;2.97;;
69910;SDS011;63555;49.920;17.868;2023-12-04T07:59:30;8.03;;;3.37;;
69910;SDS011;63555;49.920;17.868;2023-12-04T08:04:31;13.80;;;6.50;;
69910;SDS011;63555;49.920;17.868;2023-12-04T08:09:31;9.13;;;3.90;;
69910;SDS011;63555;49.920;17.868;2023-12-04T08:14:32;8.87;;;5.53;;
69910;SDS011;63555;49.920;17.868;2023-12-04T08:19:33;6.87;;;3.07;;
69910;SDS011;63555;49.920;17.868;2023-12-04T08:24:34;8.00;;;5.97;;
69910;SDS011;63555;49.920;17.868;2023-12-04T08:29:34;9.30;;;6.40;;
69910;SDS011;63555;49.920;17.868;2023-12-04T08:34:34;4.33;;;2.83;;
69910;SDS011;63555;49.920;17.868;2023-12-04T08:39:35;12.67;;;4.37;;
69910;SDS011;63555;49.920;17.868;2023-12-04T08:44:35;10.38;;;5.68;;
69910;SDS011;63555;49.920;17.868;2023-12-04T08:49:36;14.93;;;5.70;;
69910;SDS011;63555;49.920;17.868;2023-12-04T08:54:39;12.67;;;5.20;;
69910;SDS011;63555;49.920;17.868;2023-12-04T08:59:41;8.67;;;4.47;;
69910;SDS011;63555;49.920;17.868;2023-12-04T09:04:42;3.73;;;2.50;;
69910;SDS011;63555;49.920;17.868;2023-12-04T09:09:42;7.60;;;5.20;;
69910;SDS011;63555;49.920;17.868;2023-12-04T09:14:43;8.95;;;4.03;;
69910;SDS011;63555;49.920;17.868;2023-12-04T09:19:43;11.40;;;4.10;;
69910;SDS011;63555;49.920;17.868;2023-12-04T09:24:43;7.73;;;4.57;;
69910;SDS011;63555;49.920;17.868;2023-12-04T09:29:44;9.97;;;4.70;;
69910;SDS011;63555;49.920;17.868;2023-12-04T09:34:44;13.47;;;5.07;;
69910;SDS011;63555;49.920;17.868;2023-12-04T09:39:45;8.17;;;4.47;;
69910;SDS011;63555;49.920;17.868;2023-12-04T09:44:46;10.33;;;5.70;;
69910;SDS011;63555;49.920;17.868;2023-12-04T09:49:49;17.92;;;8.43;;
69910;SDS011;63555;49.920;17.868;2023-12-04T09:54:52;9.57;;;4.72;;
69910;SDS011;63555;49.920;17.868;2023-12-04T09:59:53;14.40;;;6.77;;
69910;SDS011;63555;49.920;17.868;2023-12-04T10:04:54;26.13;;;7.00;;
69910;SDS011;63555;49.920;17.868;2023-12-04T10:09:54;17.93;;;7.17;;
69910;SDS011;63555;49.920;17.868;2023-12-04T10:15:05;17.57;;;8.13;;
69910;SDS011;63555;49.920;17.868;2023-12-04T10:20:10;17.60;;;8.23;;
69910;SDS011;63555;49.920;17.868;2023-12-04T10:25:15;19.17;;;8.43;;
69910;SDS011;63555;49.920;17.868;2023-12-04T10:30:26;16.60;;;7.63;;
69910;SDS011;63555;49.920;17.868;2023-12-04T10:35:28;19.95;;;9.05;;
69910;SDS011;63555;49.920;17.868;2023-12-04T10:40:36;16.25;;;7.28;;
69910;SDS011;63555;49.920;17.868;2023-12-04T10:45:37;30.87;;;10.37;;
69910;SDS011;63555;49.920;17.868;2023-12-04T10:50:40;17.42;;;7.10;;
69910;SDS011;63555;49.920;17.868;2023-12-04T10:55:41;14.60;;;7.82;;
69910;SDS011;63555;49.920;17.868;2023-12-04T11:00:46;14.60;;;6.82;;
69910;SDS011;63555;49.920;17.868;2023-12-04T11:06:00;17.02;;;6.47;;
69910;SDS011;63555;49.920;17.868;2023-12-04T11:11:02;17.23;;;7.63;;
69910;SDS011;63555;49.920;17.868;2023-12-04T11:22:01;15.13;;;6.28;;
69910;SDS011;63555;49.920;17.868;2023-12-04T11:27:02;17.77;;;7.43;;
69910;SDS011;63555;49.920;17.868;2023-12-04T11:32:06;11.38;;;6.22;;
69910;SDS011;63555;49.920;17.868;2023-12-04T11:37:07;12.67;;;5.63;;
69910;SDS011;63555;49.920;17.868;2023-12-04T11:42:08;11.57;;;5.63;;
69910;SDS011;63555;49.920;17.868;2023-12-04T11:47:09;10.67;;;5.53;;
69910;SDS011;63555;49.920;17.868;2023-12-04T11:52:11;11.93;;;5.47;;
69910;SDS011;63555;49.920;17.868;2023-12-04T12:02:11;14.30;;;7.00;;
69910;SDS011;63555;49.920;17.868;2023-12-04T12:07:12;11.20;;;6.00;;
69910;SDS011;63555;49.920;17.868;2023-12-04T12:12:12;15.27;;;6.63;;
69910;SDS011;63555;49.920;17.868;2023-12-04T12:17:13;11.77;;;5.60;;
69910;SDS011;63555;49.920;17.868;2023-12-04T12:22:14;13.82;;;5.88;;
69910;SDS011;63555;49.920;17.868;2023-12-04T12:27:14;13.43;;;6.10;;
69910;SDS011;63555;49.920;17.868;2023-12-04T12:32:15;16.92;;;5.90;;
69910;SDS011;63555;49.920;17.868;2023-12-04T12:37:15;15.75;;;6.63;;
69910;SDS011;63555;49.920;17.868;2023-12-04T12:42:26;13.30;;;6.40;;
69910;SDS011;63555;49.920;17.868;2023-12-04T12:47:28;19.60;;;8.32;;
69910;SDS011;63555;49.920;17.868;2023-12-04T12:52:30;23.57;;;9.20;;
69910;SDS011;63555;49.920;17.868;2023-12-04T12:57:33;19.25;;;9.20;;
69910;SDS011;63555;49.920;17.868;2023-12-04T13:02:37;28.53;;;10.80;;
69910;SDS011;63555;49.920;17.868;2023-12-04T13:07:37;14.95;;;8.50;;
69910;SDS011;63555;49.920;17.868;2023-12-04T13:12:38;23.47;;;8.47;;
69910;SDS011;63555;49.920;17.868;2023-12-04T13:17:38;28.77;;;10.47;;
69910;SDS011;63555;49.920;17.868;2023-12-04T13:22:39;15.57;;;7.30;;
69910;SDS011;63555;49.920;17.868;2023-12-04T13:27:39;22.23;;;8.53;;
69910;SDS011;63555;49.920;17.868;2023-12-04T13:32:39;18.87;;;8.03;;
69910;SDS011;63555;49.920;17.868;2023-12-04T13:37:40;18.93;;;6.43;;
69910;SDS011;63555;49.920;17.868;2023-12-04T13:42:40;29.13;;;9.83;;
69910;SDS011;63555;49.920;17.868;2023-12-04T13:47:59;30.30;;;12.27;;
69910;SDS011;63555;49.920;17.868;2023-12-04T13:52:59;34.70;;;13.90;;
69910;SDS011;63555;49.920;17.868;2023-12-04T13:58:00;33.15;;;13.77;;
69910;SDS011;63555;49.920;17.868;2023-12-04T14:03:03;21.02;;;8.63;;
69910;SDS011;63555;49.920;17.868;2023-12-04T14:08:04;17.10;;;7.60;;
69910;SDS011;63555;49.920;17.868;2023-12-04T14:13:05;20.20;;;7.70;;
69910;SDS011;63555;49.920;17.868;2023-12-04T14:18:05;19.23;;;8.37;;
69910;SDS011;63555;49.920;17.868;2023-12-04T14:23:05;18.40;;;9.93;;
69910;SDS011;63555;49.920;17.868;2023-12-04T14:28:06;26.57;;;9.57;;
69910;SDS011;63555;49.920;17.868;2023-12-04T14:33:07;23.40;;;9.50;;
69910;SDS011;63555;49.920;17.868;2023-12-04T14:38:09;21.50;;;9.43;;
69910;SDS011;63555;49.920;17.868;2023-12-04T14:43:09;21.63;;;9.27;;
69910;SDS011;63555;49.920;17.868;2023-12-04T14:48:10;15.47;;;7.10;;
69910;SDS011;63555;49.920;17.868;2023-12-04T14:53:11;20.27;;;8.68;;
69910;SDS011;63555;49.920;17.868;2023-12-04T14:58:16;42.43;;;14.80;;
69910;SDS011;63555;49.920;17.868;2023-12-04T15:03:35;37.22;;;14.63;;
69910;SDS011;63555;49.920;17.868;2023-12-04T15:08:35;31.60;;;11.63;;
69910;SDS011;63555;49.920;17.868;2023-12-04T15:13:55;20.90;;;9.50;;
69910;SDS011;63555;49.920;17.868;2023-12-04T15:19:06;89.28;;;31.83;;
69910;SDS011;63555;49.920;17.868;2023-12-04T15:24:12;105.53;;;33.17;;
69910;SDS011;63555;49.920;17.868;2023-12-04T15:29:13;77.90;;;28.47;;
69910;SDS011;63555;49.920;17.868;2023-12-04T15:34:14;28.08;;;12.13;;
69910;SDS011;63555;49.920;17.868;2023-12-04T15:39:15;29.53;;;13.17;;
69910;SDS011;63555;49.920;17.868;2023-12-04T15:44:18;29.02;;;14.27;;
69910;SDS011;63555;49.920;17.868;2023-12-04T15:49:19;30.93;;;10.97;;
69910;SDS011;63555;49.920;17.868;2023-12-04T15:54:21;25.70;;;10.27;;
69910;SDS011;63555;49.920;17.868;2023-12-04T15:59:21;37.25;;;14.25;;
69910;SDS011;63555;49.920;17.868;2023-12-04T16:04:21;27.23;;;11.87;;
69910;SDS011;63555;49.920;17.868;2023-12-04T16:09:22;30.83;;;11.85;;
69910;SDS011;63555;49.920;17.868;2023-12-04T16:14:23;56.65;;;20.50;;
69910;SDS011;63555;49.920;17.868;2023-12-04T16:19:24;62.65;;;23.13;;
69910;SDS011;63555;49.920;17.868;2023-12-04T16:24:25;66.40;;;27.33;;
69910;SDS011;63555;49.920;17.868;2023-12-04T16:29:26;38.63;;;15.60;;
69910;SDS011;63555;49.920;17.868;2023-12-04T16:34:33;38.03;;;15.87;;
69910;SDS011;63555;49.920;17.868;2023-12-04T16:39:33;34.43;;;13.33;;
69910;SDS011;63555;49.920;17.868;2023-12-04T16:44:33;30.50;;;13.20;;
69910;SDS011;63555;49.920;17.868;2023-12-04T16:49:34;36.13;;;15.30;;
69910;SDS011;63555;49.920;17.868;2023-12-04T16:54:34;46.77;;;19.67;;
69910;SDS011;63555;49.920;17.868;2023-12-04T16:59:37;51.53;;;20.98;;
69910;SDS011;63555;49.920;17.868;2023-12-04T17:04:38;43.70;;;16.13;;
69910;SDS011;63555;49.920;17.868;2023-12-04T17:09:39;44.50;;;18.10;;
69910;SDS011;63555;49.920;17.868;2023-12-04T17:14:39;41.67;;;17.37;;
69910;SDS011;63555;49.920;17.868;2023-12-04T17:19:40;50.30;;;19.73;;
69910;SDS011;63555;49.920;17.868;2023-12-04T17:24:41;59.63;;;28.87;;
69910;SDS011;63555;49.920;17.868;2023-12-04T17:29:41;60.03;;;24.30;;
69910;SDS011;63555;49.920;17.868;2023-12-04T17:34:41;67.90;;;29.67;;
69910;SDS011;63555;49.920;17.868;2023-12-04T17:39:43;67.18;;;27.92;;
69910;SDS011;63555;49.920;17.868;2023-12-04T17:44:43;72.53;;;28.23;;
69910;SDS011;63555;49.920;17.868;2023-12-04T17:49:43;57.70;;;24.43;;
69910;SDS011;63555;49.920;17.868;2023-12-04T17:54:45;66.23;;;25.87;;
69910;SDS011;63555;49.920;17.868;2023-12-04T17:59:46;58.07;;;26.77;;
69910;SDS011;63555;49.920;17.868;2023-12-04T18:04:47;63.00;;;24.03;;
69910;SDS011;63555;49.920;17.868;2023-12-04T18:09:48;54.10;;;22.58;;
69910;SDS011;63555;49.920;17.868;2023-12-04T18:14:49;54.63;;;20.27;;
69910;SDS011;63555;49.920;17.868;2023-12-04T18:19:51;56.33;;;24.97;;
69910;SDS011;63555;49.920;17.868;2023-12-04T18:24:53;48.28;;;22.45;;
69910;SDS011;63555;49.920;17.868;2023-12-04T18:29:55;52.50;;;21.17;;
69910;SDS011;63555;49.920;17.868;2023-12-04T18:34:56;58.30;;;24.05;;
69910;SDS011;63555;49.920;17.868;2023-12-04T18:39:57;69.07;;;26.40;;
69910;SDS011;63555;49.920;17.868;2023-12-04T18:44:59;64.18;;;25.33;;
69910;SDS011;63555;49.920;17.868;2023-12-04T18:49:59;66.47;;;24.83;;
69910;SDS011;63555;49.920;17.868;2023-12-04T18:55:00;59.65;;;23.15;;
69910;SDS011;63555;49.920;17.868;2023-12-04T19:00:00;70.80;;;28.80;;
69910;SDS011;63555;49.920;17.868;2023-12-04T19:05:01;62.53;;;26.70;;
69910;SDS011;63555;49.920;17.868;2023-12-04T19:10:01;80.30;;;28.73;;
69910;SDS011;63555;49.920;17.868;2023-12-04T19:15:03;62.58;;;24.73;;
69910;SDS011;63555;49.920;17.868;2023-12-04T19:20:04;51.60;;;23.70;;
69910;SDS011;63555;49.920;17.868;2023-12-04T19:25:06;62.72;;;24.55;;
69910;SDS011;63555;49.920;17.868;2023-12-04T19:30:07;55.97;;;23.70;;
69910;SDS011;63555;49.920;17.868;2023-12-04T19:35:07;60.88;;;23.50;;
69910;SDS011;63555;49.920;17.868;2023-12-04T19:40:09;57.03;;;24.17;;
69910;SDS011;63555;49.920;17.868;2023-12-04T19:45:12;43.90;;;19.38;;
69910;SDS011;63555;49.920;17.868;2023-12-04T19:50:12;52.97;;;19.70;;
69910;SDS011;63555;49.920;17.868;2023-12-04T19:55:13;50.70;;;20.67;;
69910;SDS011;63555;49.920;17.868;2023-12-04T20:00:13;52.53;;;22.10;;
69910;SDS011;63555;49.920;17.868;2023-12-04T20:05:14;40.80;;;20.30;;
69910;SDS011;63555;49.920;17.868;2023-12-04T20:10:14;49.93;;;20.80;;
69910;SDS011;63555;49.920;17.868;2023-12-04T20:15:15;50.93;;;23.90;;
69910;SDS011;63555;49.920;17.868;2023-12-04T20:20:17;59.97;;;24.63;;
69910;SDS011;63555;49.920;17.868;2023-12-04T20:25:19;65.70;;;24.77;;
69910;SDS011;63555;49.920;17.868;2023-12-04T20:30:19;66.33;;;24.43;;
69910;SDS011;63555;49.920;17.868;2023-12-04T20:35:20;46.50;;;21.10;;
69910;SDS011;63555;49.920;17.868;2023-12-04T20:40:20;74.63;;;27.43;;
69910;SDS011;63555;49.920;17.868;2023-12-04T20:45:24;66.13;;;25.60;;
69910;SDS011;63555;49.920;17.868;2023-12-04T20:50:27;67.72;;;24.58;;
69910;SDS011;63555;49.920;17.868;2023-12-04T20:55:28;58.13;;;23.63;;
69910;SDS011;63555;49.920;17.868;2023-12-04T21:00:28;56.23;;;22.73;;
69910;SDS011;63555;49.920;17.868;2023-12-04T21:05:30;64.60;;;24.52;;
69910;SDS011;63555;49.920;17.868;2023-12-04T21:10:31;51.97;;;22.13;;
69910;SDS011;63555;49.920;17.868;2023-12-04T21:15:32;56.33;;;21.90;;
69910;SDS011;63555;49.920;17.868;2023-12-04T21:20:34;60.23;;;21.23;;
69910;SDS011;63555;49.920;17.868;2023-12-04T21:25:34;48.67;;;20.80;;
69910;SDS011;63555;49.920;17.868;2023-12-04T21:30:35;46.43;;;20.43;;
69910;SDS011;63555;49.920;17.868;2023-12-04T21:35:35;45.70;;;20.80;;
69910;SDS011;63555;49.920;17.868;2023-12-04T21:40:36;42.97;;;20.23;;
69910;SDS011;63555;49.920;17.868;2023-12-04T21:45:36;43.87;;;18.77;;
69910;SDS011;63555;49.920;17.868;2023-12-04T21:50:37;46.33;;;18.60;;
69910;SDS011;63555;49.920;17.868;2023-12-04T21:55:37;39.03;;;16.67;;
69910;SDS011;63555;49.920;17.868;2023-12-04T22:00:37;35.17;;;15.27;;
69910;SDS011;63555;49.920;17.868;2023-12-04T22:05:38;34.30;;;17.00;;
69910;SDS011;63555;49.920;17.868;2023-12-04T22:10:38;41.70;;;16.53;;
69910;SDS011;63555;49.920;17.868;2023-12-04T22:15:38;48.13;;;17.57;;
69910;SDS011;63555;49.920;17.868;2023-12-04T22:20:39;49.57;;;21.17;;
69910;SDS011;63555;49.920;17.868;2023-12-04T22:25:40;39.00;;;17.13;;
69910;SDS011;63555;49.920;17.868;2023-12-04T22:30:40;41.80;;;18.23;;
69910;SDS011;63555;49.920;17.868;2023-12-04T22:35:42;39.07;;;17.43;;
69910;SDS011;63555;49.920;17.868;2023-12-04T22:40:43;41.00;;;17.77;;
69910;SDS011;63555;49.920;17.868;2023-12-04T22:45:43;51.37;;;19.23;;
69910;SDS011;63555;49.920;17.868;2023-12-04T22:50:43;43.13;;;21.73;;
69910;SDS011;63555;49.920;17.868;2023-12-04T22:55:44;52.47;;;22.03;;
69910;SDS011;63555;49.920;17.868;2023-12-04T23:00:44;37.00;;;16.87;;
69910;SDS011;63555;49.920;17.868;2023-12-04T23:05:44;29.90;;;13.67;;
69910;SDS011;63555;49.920;17.868;2023-12-04T23:10:45;23.60;;;12.50;;
69910;SDS011;63555;49.920;17.868;2023-12-04T23:15:45;39.10;;;13.10;;
69910;SDS011;63555;49.920;17.868;2023-12-04T23:20:46;26.40;;;10.33;;
69910;SDS011;63555;49.920;17.868;2023-12-04T23:25:46;25.30;;;9.80;;
69910;SDS011;63555;49.920;17.868;2023-12-04T23:30:47;17.53;;;8.60;;
69910;SDS011;63555;49.920;17.868;2023-12-04T23:35:47;24.47;;;9.67;;
69910;SDS011;63555;49.920;17.868;2023-12-04T23:40:47;19.43;;;8.57;;
69910;SDS011;63555;49.920;17.868;2023-12-04T23:45:48;15.47;;;7.27;;
69910;SDS011;63555;49.920;17.868;2023-12-04T23:50:48;15.13;;;6.87;;
69910;SDS011;63555;49.920;17.868;2023-12-04T23:55:50;13.70;;;7.77;;
